createdAt,value
2022-11-12T00:03:19.210Z,10.00
2022-11-12T00:05:20.953Z,9.75
2022-11-12T00:07:22.486Z,9.27
2022-11-12T00:11:25.422Z,8.07
2022-11-12T00:13:28.398Z,7.60
2022-11-12T00:15:30.014Z,10.45
2022-11-12T00:17:31.559Z,9.70
2022-11-12T00:21:34.467Z,8.15
2022-11-12T00:23:36.041Z,9.35
2022-11-12T00:25:37.767Z,8.18
2022-11-12T00:27:39.377Z,9.13
2022-11-12T00:29:42.395Z,9.77
2022-11-12T00:31:43.978Z,9.02
2022-11-12T00:35:47.031Z,7.60
2022-11-12T00:37:53.567Z,10.40
2022-11-12T00:39:55.176Z,8.95
2022-11-12T00:41:57.057Z,9.40
2022-11-12T00:43:58.682Z,9.55
2022-11-12T00:46:01.699Z,8.38
2022-11-12T00:48:03.520Z,12.10
2022-11-12T00:50:06.526Z,8.07
2022-11-12T00:52:08.286Z,7.38
2022-11-12T00:54:10.028Z,9.35
2022-11-12T00:56:11.546Z,8.23
2022-11-12T01:00:17.083Z,7.25
2022-11-12T01:02:20.170Z,6.68
2022-11-12T01:04:21.765Z,7.38
2022-11-12T01:06:23.909Z,8.05
2022-11-12T01:08:25.980Z,7.88
2022-11-12T01:10:27.903Z,8.23
2022-11-12T01:12:30.879Z,7.03
2022-11-12T01:14:32.448Z,10.75
2022-11-12T01:18:38.616Z,8.13
2022-11-12T01:20:40.290Z,7.80
2022-11-12T01:22:41.873Z,8.82
2022-11-12T01:24:43.400Z,8.27
2022-11-12T01:28:46.429Z,7.72
2022-11-12T01:30:47.999Z,9.50
2022-11-12T01:32:49.536Z,10.00
2022-11-12T01:36:54.177Z,8.68
2022-11-12T01:38:56.080Z,9.15
2022-11-12T01:40:57.659Z,8.02
2022-11-12T01:45:00.610Z,8.75
2022-11-12T01:47:06.685Z,7.53
2022-11-12T01:49:14.028Z,7.03
2022-11-12T01:51:18.432Z,7.85
2022-11-12T01:53:21.559Z,9.25
2022-11-12T01:55:28.282Z,8.07
2022-11-12T01:57:35.277Z,10.13
2022-11-12T01:59:43.788Z,9.93
2022-11-12T02:01:45.428Z,8.50
2022-11-12T02:03:47.047Z,9.32
2022-11-12T02:05:57.443Z,9.40
2022-11-12T02:08:01.873Z,8.60
2022-11-12T02:10:05.551Z,10.88
2022-11-12T02:12:07.540Z,9.25
2022-11-12T02:14:09.177Z,10.50
2022-11-12T02:16:11.037Z,9.00
2022-11-12T02:18:12.627Z,10.07
2022-11-12T02:22:17.695Z,9.38
2022-11-12T02:24:32.622Z,11.70
2022-11-12T02:26:36.965Z,10.27
2022-11-12T02:28:38.601Z,9.02
2022-11-12T02:30:44.835Z,11.48
2022-11-12T02:32:46.412Z,11.85
2022-11-12T02:36:49.467Z,9.73
2022-11-12T02:38:52.514Z,8.40
2022-11-12T02:40:54.115Z,10.23
2022-11-12T02:42:55.738Z,10.52
2022-11-12T02:44:57.288Z,7.72
2022-11-12T02:49:00.202Z,8.93
2022-11-12T02:53:03.630Z,8.63
2022-11-12T02:55:08.776Z,6.97
2022-11-12T02:57:10.692Z,7.65
2022-11-12T02:59:12.274Z,7.15
2022-11-12T03:01:13.907Z,7.80
2022-11-12T03:03:15.533Z,8.48
2022-11-12T03:05:17.298Z,7.55
2022-11-12T03:07:18.894Z,8.90
2022-11-12T03:09:20.459Z,9.15
2022-11-12T03:13:24.844Z,6.90
2022-11-12T03:15:27.577Z,9.63
2022-11-12T03:17:29.164Z,6.95
2022-11-12T03:19:30.871Z,7.60
2022-11-12T03:21:32.419Z,6.50
2022-11-12T03:25:36.117Z,6.30
2022-11-12T03:27:39.091Z,7.90
2022-11-12T03:29:40.702Z,6.20
2022-11-12T03:31:42.415Z,7.65
2022-11-12T03:33:44.100Z,7.60
2022-11-12T03:35:45.672Z,7.68
2022-11-12T03:39:48.711Z,7.25
2022-11-12T03:43:53.033Z,6.30
2022-11-12T03:45:54.918Z,5.82
2022-11-12T03:47:58.025Z,6.07
2022-11-12T03:49:59.636Z,5.72
2022-11-12T03:52:01.211Z,5.70
2022-11-12T03:56:04.693Z,6.97
2022-11-12T03:58:06.410Z,6.20
2022-11-12T04:00:11.634Z,6.00
2022-11-12T04:02:13.240Z,7.13
2022-11-12T04:04:14.800Z,8.30
2022-11-12T04:08:19.752Z,6.75
2022-11-12T04:10:21.288Z,6.45
2022-11-12T04:14:24.226Z,5.50
2022-11-12T04:18:28.703Z,5.03
2022-11-12T04:20:30.479Z,5.60
2022-11-12T04:22:32.027Z,7.28
2022-11-12T04:26:35.725Z,7.35
2022-11-12T04:28:37.280Z,7.07
2022-11-12T04:32:48.628Z,7.70
2022-11-12T04:34:50.221Z,6.63
2022-11-12T04:36:51.845Z,7.72
2022-11-12T04:40:54.796Z,5.63
2022-11-12T04:44:57.862Z,6.95
2022-11-12T04:46:59.441Z,7.32
2022-11-12T04:51:05.747Z,6.82
2022-11-12T04:53:07.305Z,8.63
2022-11-12T04:57:10.764Z,8.48
2022-11-12T05:01:13.741Z,7.20
2022-11-12T05:03:16.140Z,6.47
2022-11-12T05:05:19.076Z,7.30
2022-11-12T05:07:20.656Z,7.97
2022-11-12T05:09:24.272Z,6.57
2022-11-12T05:11:25.812Z,6.32
2022-11-12T05:15:28.740Z,7.90
2022-11-12T05:19:31.753Z,5.45
2022-11-12T05:23:42.213Z,6.55
2022-11-12T05:27:45.121Z,6.07
2022-11-12T05:31:48.184Z,5.82
2022-11-12T05:35:51.201Z,9.90
2022-11-12T05:39:55.522Z,6.10
2022-11-12T05:44:15.968Z,8.55
2022-11-12T05:48:24.010Z,8.23
2022-11-12T05:50:28.228Z,7.47
2022-11-12T05:52:36.728Z,6.93
2022-11-12T05:54:39.694Z,7.25
2022-11-12T05:56:41.376Z,6.82
2022-11-12T05:58:43.044Z,7.78
2022-11-12T06:00:44.623Z,7.47
2022-11-12T06:04:47.645Z,20.20
2022-11-12T06:08:50.725Z,11.65
2022-11-12T06:10:54.825Z,8.43
2022-11-12T06:12:56.432Z,10.10
2022-11-12T06:14:58.000Z,10.35
2022-11-12T06:19:00.958Z,8.85
2022-11-12T06:23:04.832Z,8.00
2022-11-12T06:25:06.907Z,9.15
2022-11-12T06:27:10.030Z,8.70
2022-11-12T06:29:11.856Z,7.10
2022-11-12T06:31:14.201Z,7.68
2022-11-12T06:33:15.768Z,7.07
2022-11-12T06:37:20.029Z,8.60
2022-11-12T06:39:21.660Z,9.27
2022-11-12T06:41:23.248Z,7.38
2022-11-12T06:43:28.945Z,9.10
2022-11-12T06:45:30.606Z,7.72
2022-11-12T06:47:32.413Z,9.00
2022-11-12T06:49:33.998Z,7.53
2022-11-12T06:53:36.969Z,8.88
2022-11-12T06:55:38.551Z,8.48
2022-11-12T06:59:42.910Z,8.20
2022-11-12T07:01:44.652Z,7.55
2022-11-12T07:03:46.250Z,9.63
2022-11-12T07:07:49.690Z,10.25
2022-11-12T07:09:51.659Z,8.70
2022-11-12T07:11:53.234Z,10.70
2022-11-12T07:15:58.863Z,8.48
2022-11-12T07:18:00.683Z,9.27
2022-11-12T07:20:04.120Z,9.38
2022-11-12T07:22:05.934Z,8.25
2022-11-12T07:24:08.462Z,7.18
2022-11-12T07:26:14.144Z,9.00
2022-11-12T07:28:15.855Z,10.48
2022-11-12T07:30:17.751Z,9.70
2022-11-12T07:32:20.881Z,10.00
2022-11-12T07:34:22.619Z,9.48
2022-11-12T07:36:27.406Z,8.43
2022-11-12T07:38:32.211Z,11.60
2022-11-12T07:40:33.933Z,9.98
2022-11-12T07:42:35.939Z,7.22
2022-11-12T07:44:37.624Z,10.98
2022-11-12T07:46:39.377Z,9.73
2022-11-12T07:48:44.034Z,10.13
2022-11-12T07:50:45.747Z,9.48
2022-11-12T07:52:47.351Z,10.82
2022-11-12T07:54:49.519Z,7.82
2022-11-12T07:56:51.224Z,9.35
2022-11-12T07:58:53.004Z,9.30
2022-11-12T08:00:54.723Z,8.40
2022-11-12T08:02:59.739Z,9.25
2022-11-12T08:05:08.584Z,10.50
2022-11-12T08:07:18.530Z,7.82
2022-11-12T08:09:20.154Z,7.68
2022-11-12T08:13:23.659Z,8.98
2022-11-12T08:15:25.643Z,10.85
2022-11-12T08:17:27.394Z,7.75
2022-11-12T08:19:28.954Z,8.32
2022-11-12T08:23:33.346Z,7.00
2022-11-12T08:25:40.610Z,10.27
2022-11-12T08:27:42.187Z,9.98
2022-11-12T08:29:43.777Z,8.75
2022-11-12T08:31:48.401Z,8.15
2022-11-12T08:33:50.457Z,8.38
2022-11-12T08:35:58.124Z,8.20
2022-11-12T08:38:08.347Z,8.60
2022-11-12T08:40:11.378Z,8.15
2022-11-12T08:42:13.117Z,9.40
2022-11-12T08:44:14.686Z,7.05
2022-11-12T08:46:21.791Z,10.20
2022-11-12T08:48:23.401Z,10.77
2022-11-12T08:50:25.194Z,12.98
2022-11-12T08:52:26.801Z,11.00
2022-11-12T08:54:29.744Z,8.93
2022-11-12T08:56:31.320Z,8.10
2022-11-12T08:58:32.916Z,12.02
2022-11-12T09:00:37.183Z,7.70
2022-11-12T09:02:39.330Z,9.57
2022-11-12T09:04:40.843Z,10.00
2022-11-12T09:06:42.416Z,9.52
2022-11-12T09:08:44.053Z,10.43
2022-11-12T09:10:47.360Z,9.35
2022-11-12T09:12:51.023Z,10.00
2022-11-12T09:14:56.084Z,13.45
2022-11-12T09:16:57.825Z,10.40
2022-11-12T09:18:59.359Z,10.93
2022-11-12T09:21:03.606Z,12.25
2022-11-12T09:23:06.903Z,11.20
2022-11-12T09:25:09.022Z,11.85
2022-11-12T09:27:11.949Z,11.68
2022-11-12T09:29:13.505Z,15.18
2022-11-12T09:31:15.011Z,13.75
2022-11-12T09:33:18.013Z,10.80
2022-11-12T09:35:19.559Z,11.20
2022-11-12T09:37:21.171Z,11.43
2022-11-12T09:39:22.819Z,12.32
2022-11-12T09:41:29.695Z,15.15
2022-11-12T09:43:37.228Z,22.90
2022-11-12T09:45:39.856Z,16.75
2022-11-12T09:47:46.984Z,13.32
2022-11-12T09:49:55.249Z,17.30
2022-11-12T09:52:03.036Z,17.63
2022-11-12T09:56:13.424Z,13.70
2022-11-12T09:58:17.001Z,14.88
2022-11-12T10:00:21.631Z,12.13
2022-11-12T10:02:31.888Z,19.92
2022-11-12T10:04:46.248Z,18.30
2022-11-12T10:06:57.070Z,15.20
2022-11-12T10:09:05.023Z,14.20
2022-11-12T10:11:32.014Z,16.55
2022-11-12T10:13:45.955Z,16.55
2022-11-12T10:16:00.876Z,13.50
2022-11-12T10:18:09.124Z,16.02
2022-11-12T10:20:18.258Z,16.85
2022-11-12T10:22:33.086Z,15.75
2022-11-12T10:24:36.541Z,16.73
2022-11-12T10:26:39.360Z,17.33
2022-11-12T10:28:46.567Z,13.43
2022-11-12T10:30:48.140Z,15.60
2022-11-12T10:32:52.971Z,20.20
2022-11-12T10:34:54.519Z,18.48
2022-11-12T10:37:01.375Z,16.63
2022-11-12T10:39:03.184Z,15.63
2022-11-12T10:41:19.179Z,16.17
2022-11-12T10:43:22.842Z,18.20
2022-11-12T10:45:24.624Z,18.58
2022-11-12T10:47:30.138Z,19.98
2022-11-12T10:49:33.200Z,16.13
2022-11-12T10:51:37.227Z,18.15
2022-11-12T10:53:40.103Z,17.55
2022-11-12T10:55:59.150Z,15.98
2022-11-12T10:58:15.191Z,16.00
2022-11-12T11:00:21.058Z,18.38
2022-11-12T11:02:22.747Z,18.30
2022-11-12T11:04:30.560Z,16.65
2022-11-12T11:06:33.441Z,18.88
2022-11-12T11:08:39.132Z,18.13
2022-11-12T11:10:41.056Z,19.20
2022-11-12T11:12:42.599Z,14.93
2022-11-12T11:14:44.196Z,15.55
2022-11-12T11:16:49.994Z,15.00
2022-11-12T11:18:59.914Z,17.92
2022-11-12T11:21:31.923Z,14.82
2022-11-12T11:23:40.525Z,21.05
2022-11-12T11:25:43.229Z,20.08
2022-11-12T11:27:56.997Z,15.05
2022-11-12T11:30:07.905Z,15.02
2022-11-12T11:32:18.907Z,15.80
2022-11-12T11:34:32.611Z,14.07
2022-11-12T11:36:44.633Z,13.18
2022-11-12T11:38:57.395Z,14.88
2022-11-12T11:41:10.960Z,15.02
2022-11-12T11:43:40.074Z,15.38
2022-11-12T11:45:56.312Z,12.18
2022-11-12T11:48:05.715Z,13.98
2022-11-12T11:50:27.969Z,13.00
2022-11-12T11:52:49.071Z,12.43
2022-11-12T11:55:14.136Z,11.85
2022-11-12T11:57:21.399Z,11.75
2022-11-12T11:59:33.489Z,12.57
2022-11-12T12:01:49.964Z,13.05
2022-11-12T12:04:17.352Z,11.77
2022-11-12T12:06:23.845Z,13.38
2022-11-12T12:08:37.523Z,10.68
2022-11-12T12:11:07.636Z,11.00
2022-11-12T12:13:21.323Z,11.77
2022-11-12T12:15:56.012Z,12.93
2022-11-12T12:18:05.422Z,11.77
2022-11-12T12:20:19.733Z,11.48
2022-11-12T12:22:29.646Z,13.40
2022-11-12T12:24:37.473Z,17.95
2022-11-12T12:26:45.818Z,15.52
2022-11-12T12:28:53.830Z,16.92
2022-11-12T12:31:01.006Z,16.63
2022-11-12T12:33:17.201Z,12.05
2022-11-12T12:35:25.023Z,16.67
2022-11-12T12:37:35.475Z,18.48
2022-11-12T12:39:48.174Z,15.63
2022-11-12T12:41:58.380Z,16.58
2022-11-12T12:44:04.015Z,14.60
2022-11-12T12:46:06.587Z,18.50
2022-11-12T12:48:14.605Z,16.90
2022-11-12T12:50:20.437Z,16.35
2022-11-12T12:52:22.097Z,18.50
2022-11-12T12:54:55.810Z,20.38
2022-11-12T12:56:58.989Z,18.55
2022-11-12T12:59:01.386Z,18.70
2022-11-12T13:01:05.910Z,27.70
2022-11-12T13:03:11.222Z,24.50
2022-11-12T13:05:24.508Z,28.80
2022-11-12T13:07:41.852Z,17.20
2022-11-12T13:09:43.560Z,32.05
2022-11-12T13:11:50.683Z,16.05
2022-11-12T13:13:56.642Z,22.02
2022-11-12T13:15:59.844Z,16.20
2022-11-12T13:18:01.425Z,13.63
2022-11-12T13:20:35.437Z,15.77
2022-11-12T13:22:57.847Z,15.45
2022-11-12T13:25:04.377Z,13.63
2022-11-12T13:27:05.995Z,12.50
2022-11-12T13:29:24.764Z,16.40
2022-11-12T13:31:28.574Z,13.75
2022-11-12T13:33:33.504Z,13.02
2022-11-12T13:35:36.159Z,15.55
2022-11-12T13:37:43.762Z,17.77
2022-11-12T13:39:45.807Z,13.63
2022-11-12T13:41:56.491Z,13.85
2022-11-12T13:43:58.153Z,15.35
2022-11-12T13:46:32.713Z,13.55
2022-11-12T13:48:38.881Z,14.10
2022-11-12T13:50:41.563Z,13.13
2022-11-12T13:52:43.445Z,17.52
2022-11-12T13:54:45.130Z,15.80
2022-11-12T13:56:46.763Z,26.70
2022-11-12T13:58:48.386Z,16.00
2022-11-12T14:00:54.692Z,17.35
2022-11-12T14:03:01.132Z,16.23
2022-11-12T14:05:03.474Z,15.65
2022-11-12T14:07:25.563Z,16.92
2022-11-12T14:09:50.089Z,16.52
2022-11-12T14:12:05.938Z,24.17
2022-11-12T14:14:19.156Z,16.23
2022-11-12T14:16:41.454Z,14.27
2022-11-12T14:18:59.802Z,13.90
2022-11-12T14:21:06.036Z,15.48
2022-11-12T14:23:12.228Z,17.55
2022-11-12T14:25:17.933Z,19.67
2022-11-12T14:27:34.742Z,17.30
2022-11-12T14:29:41.089Z,15.75
2022-11-12T14:31:45.587Z,15.52
2022-11-12T14:33:48.548Z,14.43
2022-11-12T14:35:52.040Z,18.38
2022-11-12T14:37:55.492Z,16.45
2022-11-12T14:39:57.078Z,14.55
2022-11-12T14:41:59.901Z,15.18
2022-11-12T14:44:13.029Z,15.65
2022-11-12T14:46:24.355Z,15.73
2022-11-12T14:48:26.390Z,17.60
2022-11-12T14:50:37.399Z,13.93
2022-11-12T14:52:45.960Z,13.95
2022-11-12T14:54:50.226Z,14.18
2022-11-12T14:56:52.674Z,13.73
2022-11-12T14:58:55.940Z,17.70
2022-11-12T15:00:57.563Z,16.38
2022-11-12T15:03:00.813Z,16.45
2022-11-12T15:05:12.404Z,17.55
2022-11-12T15:07:27.165Z,13.70
2022-11-12T15:09:36.311Z,17.38
2022-11-12T15:11:44.640Z,16.00
2022-11-12T15:13:47.896Z,15.10
2022-11-12T15:15:52.063Z,18.35
2022-11-12T15:17:57.567Z,15.02
2022-11-12T15:20:04.864Z,15.15
2022-11-12T15:22:06.513Z,19.15
2022-11-12T15:24:21.726Z,18.63
2022-11-12T15:26:26.452Z,18.30
2022-11-12T15:28:28.194Z,15.02
2022-11-12T15:30:31.032Z,16.25
2022-11-12T15:32:34.191Z,19.13
2022-11-12T15:34:46.641Z,19.30
2022-11-12T15:36:48.219Z,17.55
2022-11-12T15:38:52.417Z,15.68
2022-11-12T15:40:57.730Z,18.00
2022-11-12T15:43:01.246Z,16.25
2022-11-12T15:45:09.310Z,17.70
2022-11-12T15:47:18.841Z,18.05
2022-11-12T15:49:20.423Z,16.80
2022-11-12T15:51:21.967Z,17.00
2022-11-12T15:53:23.660Z,16.40
2022-11-12T15:55:25.275Z,15.93
2022-11-12T15:57:32.121Z,16.65
2022-11-12T15:59:34.137Z,19.02
2022-11-12T16:01:35.655Z,22.77
2022-11-12T16:03:37.188Z,19.85
2022-11-12T16:05:38.892Z,18.92
2022-11-12T16:07:41.890Z,22.33
2022-11-12T16:09:43.596Z,18.40
2022-11-12T16:11:45.765Z,20.20
2022-11-12T16:13:48.645Z,24.92
2022-11-12T16:15:51.322Z,17.85
2022-11-12T16:17:53.936Z,20.70
2022-11-12T16:19:55.502Z,19.20
2022-11-12T16:21:57.125Z,21.45
2022-11-12T16:23:58.744Z,16.63
2022-11-12T16:26:02.265Z,18.05
2022-11-12T16:28:04.570Z,22.35
2022-11-12T16:30:14.647Z,16.40
2022-11-12T16:32:16.219Z,17.95
2022-11-12T16:34:17.797Z,18.10
2022-11-12T16:36:19.443Z,22.52
2022-11-12T16:38:21.065Z,18.95
2022-11-12T16:40:24.653Z,29.02
2022-11-12T16:42:26.324Z,25.55
2022-11-12T16:44:27.994Z,26.63
2022-11-12T16:46:36.045Z,21.77
2022-11-12T16:48:37.685Z,21.98
2022-11-12T16:50:39.368Z,21.05
2022-11-12T16:52:40.898Z,27.45
2022-11-12T16:54:42.432Z,24.30
2022-11-12T16:56:45.290Z,24.77
2022-11-12T16:58:47.443Z,20.58
2022-11-12T17:00:49.271Z,22.33
2022-11-12T17:02:53.578Z,20.15
2022-11-12T17:04:55.238Z,22.83
2022-11-12T17:06:56.904Z,39.10
2022-11-12T17:08:58.573Z,76.07
2022-11-12T17:11:06.330Z,40.60
2022-11-12T17:15:10.538Z,33.70
2022-11-12T17:17:12.079Z,25.38
2022-11-12T17:19:14.998Z,32.78
2022-11-12T17:21:18.088Z,28.58
2022-11-12T17:23:19.623Z,30.33
2022-11-12T17:25:21.245Z,29.45
2022-11-12T17:27:22.774Z,28.10
2022-11-12T17:29:24.320Z,29.27
2022-11-12T17:31:26.331Z,28.92
2022-11-12T17:33:28.144Z,23.23
2022-11-12T17:35:33.002Z,27.95
2022-11-12T17:37:34.588Z,25.70
2022-11-12T17:39:36.375Z,28.08
2022-11-12T17:41:38.199Z,23.30
2022-11-12T17:43:40.679Z,25.13
2022-11-12T17:45:49.259Z,27.25
2022-11-12T17:47:50.819Z,25.85
2022-11-12T17:49:52.362Z,26.45
2022-11-12T17:51:55.251Z,26.67
2022-11-12T17:53:56.758Z,24.20
2022-11-12T17:55:59.006Z,25.92
2022-11-12T17:58:00.629Z,26.05
2022-11-12T18:00:02.364Z,24.95
2022-11-12T18:02:03.982Z,27.98
2022-11-12T18:04:05.595Z,26.90
2022-11-12T18:06:09.958Z,30.63
2022-11-12T18:08:13.633Z,31.50
2022-11-12T18:10:19.401Z,37.28
2022-11-12T18:12:21.281Z,36.47
2022-11-12T18:14:22.939Z,35.10
2022-11-12T18:16:26.260Z,37.95
2022-11-12T18:18:27.837Z,34.88
2022-11-12T18:20:29.430Z,36.97
2022-11-12T18:22:31.238Z,38.22
2022-11-12T18:24:34.140Z,35.55
2022-11-12T18:26:35.784Z,31.73
2022-11-12T18:28:37.349Z,30.35
2022-11-12T18:30:39.014Z,34.47
2022-11-12T18:32:40.699Z,39.90
2022-11-12T18:34:42.293Z,33.72
2022-11-12T18:36:43.899Z,29.23
2022-11-12T18:38:45.815Z,27.95
2022-11-12T18:40:48.775Z,30.35
2022-11-12T18:42:50.332Z,28.50
2022-11-12T18:44:51.962Z,39.38
2022-11-12T18:46:53.509Z,30.23
2022-11-12T18:48:55.105Z,29.17
2022-11-12T18:50:58.007Z,29.15
2022-11-12T18:52:59.611Z,30.65
2022-11-12T18:55:01.169Z,28.52
2022-11-12T18:57:04.343Z,38.15
2022-11-12T18:59:06.411Z,32.72
2022-11-12T19:01:10.305Z,30.10
2022-11-12T19:03:11.967Z,32.42
2022-11-12T19:05:13.656Z,30.25
2022-11-12T19:07:15.231Z,29.85
2022-11-12T19:09:17.073Z,41.75
2022-11-12T19:11:19.448Z,42.67
2022-11-12T19:13:22.347Z,55.08
2022-11-12T19:15:26.760Z,107.65
2022-11-12T19:17:31.201Z,58.97
2022-11-12T19:19:32.851Z,33.45
2022-11-12T19:23:35.930Z,35.35
2022-11-12T19:25:37.505Z,40.67
2022-11-12T19:27:39.099Z,36.45
2022-11-12T19:29:42.279Z,29.17
2022-11-12T19:31:43.823Z,32.30
2022-11-12T19:33:46.285Z,34.10
2022-11-12T19:35:47.860Z,43.15
2022-11-12T19:37:49.390Z,43.95
2022-11-12T19:39:50.918Z,35.90
2022-11-12T19:41:52.568Z,30.75
2022-11-12T19:43:54.570Z,31.17
2022-11-12T19:45:57.518Z,28.40
2022-11-12T19:47:59.072Z,24.38
2022-11-12T19:50:00.613Z,38.28
2022-11-12T19:52:02.249Z,28.38
2022-11-12T19:54:04.328Z,28.83
2022-11-12T19:56:07.248Z,29.58
2022-11-12T19:58:09.007Z,26.38
2022-11-12T20:00:12.170Z,27.88
2022-11-12T20:02:15.069Z,37.30
2022-11-12T20:04:20.180Z,30.75
2022-11-12T20:06:26.176Z,31.98
2022-11-12T20:08:28.078Z,34.20
2022-11-12T20:10:30.139Z,31.00
2022-11-12T20:12:31.674Z,31.40
2022-11-12T20:14:33.239Z,29.48
2022-11-12T20:16:34.844Z,26.60
2022-11-12T20:18:37.760Z,37.42
2022-11-12T20:20:39.317Z,36.88
2022-11-12T20:22:40.962Z,33.83
2022-11-12T20:24:42.646Z,31.73
2022-11-12T20:26:44.310Z,28.42
2022-11-12T20:28:46.017Z,32.08
2022-11-12T20:30:47.578Z,30.67
2022-11-12T20:32:49.158Z,30.70
2022-11-12T20:34:52.245Z,32.22
2022-11-12T20:36:54.336Z,26.92
2022-11-12T20:38:56.088Z,29.65
2022-11-12T20:40:59.376Z,26.10
2022-11-12T20:43:01.545Z,24.83
2022-11-12T20:45:03.471Z,28.77
2022-11-12T20:47:05.465Z,28.92
2022-11-12T20:49:07.145Z,25.70
2022-11-12T20:51:28.128Z,26.33
2022-11-12T20:53:31.383Z,28.63
2022-11-12T20:55:33.069Z,27.45
2022-11-12T20:57:34.885Z,28.88
2022-11-12T20:59:36.665Z,27.50
2022-11-12T21:01:38.784Z,27.20
2022-11-12T21:03:41.595Z,27.17
2022-11-12T21:05:43.485Z,28.30
2022-11-12T21:07:46.471Z,26.92
2022-11-12T21:09:48.113Z,25.23
2022-11-12T21:11:50.066Z,27.25
2022-11-12T21:13:51.611Z,27.65
2022-11-12T21:15:54.140Z,26.38
2022-11-12T21:17:55.746Z,27.50
2022-11-12T21:19:57.378Z,24.98
2022-11-12T21:21:59.070Z,32.20
2022-11-12T21:24:05.057Z,31.38
2022-11-12T21:26:10.001Z,29.20
2022-11-12T21:28:11.558Z,32.60
2022-11-12T21:30:13.135Z,32.38
2022-11-12T21:32:14.714Z,37.13
2022-11-12T21:34:16.257Z,29.98
2022-11-12T21:36:18.348Z,30.70
2022-11-12T21:38:20.014Z,28.65
2022-11-12T21:40:25.881Z,30.63
2022-11-12T21:42:28.081Z,27.67
2022-11-12T21:44:29.650Z,29.40
2022-11-12T21:46:32.232Z,28.08
2022-11-12T21:48:34.513Z,28.00
2022-11-12T21:50:36.258Z,32.60
2022-11-12T21:52:37.872Z,66.32
2022-11-12T21:54:42.813Z,35.53
2022-11-12T21:56:45.799Z,27.95
2022-11-12T21:58:47.470Z,40.92
2022-11-12T22:00:49.129Z,29.70
2022-11-12T22:02:54.439Z,28.13
2022-11-12T22:04:56.024Z,28.58
2022-11-12T22:06:57.760Z,27.75
2022-11-12T22:08:59.503Z,28.85
2022-11-12T22:11:01.996Z,28.58
2022-11-12T22:13:25.954Z,28.38
2022-11-12T22:15:26.834Z,27.20
2022-11-12T22:17:28.649Z,24.20
2022-11-12T22:19:30.245Z,29.40
2022-11-12T22:21:39.503Z,30.27
2022-11-12T22:23:41.848Z,44.50
2022-11-12T22:25:43.859Z,29.95
2022-11-12T22:27:45.617Z,28.33
2022-11-12T22:29:48.528Z,25.30
2022-11-12T22:31:50.132Z,46.35
2022-11-12T22:33:51.687Z,26.80
2022-11-12T22:35:53.425Z,28.98
2022-11-12T22:37:55.039Z,60.97
2022-11-12T22:39:56.636Z,27.33
2022-11-12T22:41:58.337Z,26.65
2022-11-12T22:44:01.626Z,26.73
2022-11-12T22:46:06.151Z,25.20
2022-11-12T22:48:07.718Z,36.88
2022-11-12T22:50:10.150Z,26.67
2022-11-12T22:52:11.785Z,24.80
2022-11-12T22:54:13.384Z,27.67
2022-11-12T22:56:16.301Z,25.25
2022-11-12T22:58:17.867Z,27.00
2022-11-12T23:00:28.739Z,23.58
2022-11-12T23:02:31.764Z,26.30
2022-11-12T23:04:33.503Z,27.40
2022-11-12T23:06:35.263Z,23.15
2022-11-12T23:08:37.292Z,24.05
2022-11-12T23:10:44.475Z,28.75
2022-11-12T23:12:47.225Z,23.58
2022-11-12T23:14:48.808Z,19.70
2022-11-12T23:16:50.369Z,23.85
2022-11-12T23:18:53.541Z,27.80
2022-11-12T23:21:01.664Z,20.75
2022-11-12T23:23:03.505Z,23.83
2022-11-12T23:25:06.359Z,23.70
2022-11-12T23:27:07.933Z,23.73
2022-11-12T23:29:10.867Z,24.45
2022-11-12T23:31:14.290Z,23.50
2022-11-12T23:33:15.919Z,21.27
2022-11-12T23:35:18.899Z,26.45
2022-11-12T23:37:20.428Z,22.58
2022-11-12T23:39:22.029Z,23.58
2022-11-12T23:41:25.563Z,23.35
2022-11-12T23:43:27.124Z,25.02
2022-11-12T23:45:28.708Z,25.60
2022-11-12T23:47:30.260Z,24.70
2022-11-12T23:49:31.843Z,23.38
2022-11-12T23:51:34.826Z,23.80
2022-11-12T23:53:37.274Z,22.27
2022-11-12T23:55:40.339Z,24.20
2022-11-12T23:57:42.134Z,25.38
2022-11-12T23:59:43.814Z,31.98
